sensor_id;sensor_type;location;lat;lon;timestamp;pressure;altitude;pressure_sealevel;temperature;humidity
47366;BME280;33105;47.964;7.982;2024-02-23T00:01:09;95000.69;;;4.23;100.00
47366;BME280;33105;47.964;7.982;2024-02-23T00:04:13;95007.97;;;4.22;100.00
47366;BME280;33105;47.964;7.982;2024-02-23T00:07:15;94999.34;;;4.20;100.00
47366;BME280;33105;47.964;7.982;2024-02-23T00:10:16;94994.97;;;4.09;100.00
47366;BME280;33105;47.964;7.982;2024-02-23T00:13:18;95000.09;;;4.10;100.00
47366;BME280;33105;47.964;7.982;2024-02-23T00:16:19;95004.41;;;4.06;100.00
47366;BME280;33105;47.964;7.982;2024-02-23T00:19:20;95026.03;;;4.06;100.00
47366;BME280;33105;47.964;7.982;2024-02-23T00:22:22;95037.38;;;4.08;100.00
47366;BME280;33105;47.964;7.982;2024-02-23T00:25:23;95036.50;;;3.98;100.00
47366;BME280;33105;47.964;7.982;2024-02-23T00:28:25;95026.56;;;4.08;100.00
47366;BME280;33105;47.964;7.982;2024-02-23T00:31:26;95040.91;;;4.09;100.00
47366;BME280;33105;47.964;7.982;2024-02-23T00:34:27;95051.97;;;4.07;100.00
47366;BME280;33105;47.964;7.982;2024-02-23T00:37:31;95039.22;;;3.93;100.00
47366;BME280;33105;47.964;7.982;2024-02-23T00:40:36;95029.78;;;4.00;100.00
47366;BME280;33105;47.964;7.982;2024-02-23T00:43:39;95027.94;;;4.11;100.00
47366;BME280;33105;47.964;7.982;2024-02-23T00:46:40;95044.66;;;4.03;100.00
47366;BME280;33105;47.964;7.982;2024-02-23T00:49:42;95044.38;;;4.04;100.00
47366;BME280;33105;47.964;7.982;2024-02-23T00:52:46;95055.16;;;3.94;100.00
47366;BME280;33105;47.964;7.982;2024-02-23T00:55:47;95061.16;;;4.06;100.00
47366;BME280;33105;47.964;7.982;2024-02-23T00:58:49;95073.81;;;4.01;100.00
47366;BME280;33105;47.964;7.982;2024-02-23T01:02:00;95074.94;;;4.05;100.00
47366;BME280;33105;47.964;7.982;2024-02-23T01:05:04;95076.50;;;3.96;100.00
47366;BME280;33105;47.964;7.982;2024-02-23T01:08:30;95076.00;;;4.04;100.00
47366;BME280;33105;47.964;7.982;2024-02-23T01:11:39;95074.63;;;4.01;100.00
47366;BME280;33105;47.964;7.982;2024-02-23T01:14:45;95075.97;;;3.99;100.00
47366;BME280;33105;47.964;7.982;2024-02-23T01:19:12;95076.78;;;3.99;100.00
47366;BME280;33105;47.964;7.982;2024-02-23T01:22:32;95068.13;;;3.97;100.00
47366;BME280;33105;47.964;7.982;2024-02-23T01:25:34;95074.13;;;4.04;100.00
47366;BME280;33105;47.964;7.982;2024-02-23T01:28:36;95065.72;;;3.96;100.00
47366;BME280;33105;47.964;7.982;2024-02-23T01:31:38;95060.00;;;3.92;100.00
47366;BME280;33105;47.964;7.982;2024-02-23T01:34:39;95072.34;;;3.78;100.00
47366;BME280;33105;47.964;7.982;2024-02-23T01:37:40;95070.94;;;3.70;100.00
47366;BME280;33105;47.964;7.982;2024-02-23T01:40:42;95058.78;;;3.68;100.00
47366;BME280;33105;47.964;7.982;2024-02-23T01:43:43;95056.66;;;3.75;100.00
47366;BME280;33105;47.964;7.982;2024-02-23T01:46:45;95064.22;;;3.78;100.00
47366;BME280;33105;47.964;7.982;2024-02-23T01:49:47;95060.75;;;3.83;100.00
47366;BME280;33105;47.964;7.982;2024-02-23T01:52:49;95054.47;;;3.67;100.00
47366;BME280;33105;47.964;7.982;2024-02-23T01:55:53;95048.78;;;3.68;100.00
47366;BME280;33105;47.964;7.982;2024-02-23T01:58:55;95056.72;;;3.85;100.00
47366;BME280;33105;47.964;7.982;2024-02-23T02:01:56;95050.94;;;3.66;100.00
47366;BME280;33105;47.964;7.982;2024-02-23T02:04:58;95051.25;;;3.70;100.00
47366;BME280;33105;47.964;7.982;2024-02-23T02:07:59;95061.16;;;3.59;100.00
47366;BME280;33105;47.964;7.982;2024-02-23T02:11:01;95053.66;;;3.71;100.00
47366;BME280;33105;47.964;7.982;2024-02-23T02:14:02;95046.88;;;3.64;100.00
47366;BME280;33105;47.964;7.982;2024-02-23T02:17:04;95045.53;;;3.66;100.00
47366;BME280;33105;47.964;7.982;2024-02-23T02:20:07;95036.66;;;3.71;100.00
47366;BME280;33105;47.964;7.982;2024-02-23T02:23:10;95042.31;;;3.74;100.00
47366;BME280;33105;47.964;7.982;2024-02-23T02:26:12;95029.63;;;3.70;100.00
47366;BME280;33105;47.964;7.982;2024-02-23T02:29:14;95038.28;;;3.77;100.00
47366;BME280;33105;47.964;7.982;2024-02-23T02:32:15;95036.13;;;3.74;100.00
47366;BME280;33105;47.964;7.982;2024-02-23T02:35:16;95033.97;;;3.76;100.00
47366;BME280;33105;47.964;7.982;2024-02-23T02:38:18;95022.66;;;3.79;100.00
47366;BME280;33105;47.964;7.982;2024-02-23T02:41:19;95028.59;;;3.81;100.00
47366;BME280;33105;47.964;7.982;2024-02-23T02:44:20;95014.81;;;3.78;100.00
47366;BME280;33105;47.964;7.982;2024-02-23T02:47:22;95014.50;;;3.74;100.00
47366;BME280;33105;47.964;7.982;2024-02-23T02:50:23;95014.00;;;3.77;100.00
47366;BME280;33105;47.964;7.982;2024-02-23T02:53:25;95012.97;;;3.88;100.00
47366;BME280;33105;47.964;7.982;2024-02-23T02:56:26;95005.28;;;3.65;100.00
47366;BME280;33105;47.964;7.982;2024-02-23T02:59:27;95009.41;;;3.78;100.00
47366;BME280;33105;47.964;7.982;2024-02-23T03:02:28;95009.16;;;3.84;100.00
47366;BME280;33105;47.964;7.982;2024-02-23T03:05:30;95011.84;;;3.79;100.00
47366;BME280;33105;47.964;7.982;2024-02-23T03:08:31;95006.75;;;3.88;100.00
47366;BME280;33105;47.964;7.982;2024-02-23T03:11:33;95016.72;;;3.82;100.00
47366;BME280;33105;47.964;7.982;2024-02-23T03:14:34;95019.34;;;3.72;100.00
47366;BME280;33105;47.964;7.982;2024-02-23T03:17:35;95018.28;;;3.73;100.00
47366;BME280;33105;47.964;7.982;2024-02-23T03:20:37;95015.06;;;3.76;100.00
47366;BME280;33105;47.964;7.982;2024-02-23T03:23:38;95021.78;;;3.68;100.00
47366;BME280;33105;47.964;7.982;2024-02-23T03:26:39;95019.66;;;3.70;100.00
47366;BME280;33105;47.964;7.982;2024-02-23T03:29:41;95018.28;;;3.68;100.00
47366;BME280;33105;47.964;7.982;2024-02-23T03:32:42;94995.94;;;3.83;100.00
47366;BME280;33105;47.964;7.982;2024-02-23T03:35:43;94996.19;;;3.81;100.00
47366;BME280;33105;47.964;7.982;2024-02-23T03:38:45;94995.16;;;3.87;100.00
47366;BME280;33105;47.964;7.982;2024-02-23T03:41:46;95007.09;;;4.01;100.00
47366;BME280;33105;47.964;7.982;2024-02-23T03:45:08;95007.03;;;3.86;100.00
47366;BME280;33105;47.964;7.982;2024-02-23T03:48:13;95010.50;;;3.82;100.00
47366;BME280;33105;47.964;7.982;2024-02-23T03:51:17;95012.91;;;3.78;100.00
47366;BME280;33105;47.964;7.982;2024-02-23T03:54:18;94992.47;;;3.92;100.00
47366;BME280;33105;47.964;7.982;2024-02-23T03:57:26;94997.56;;;3.84;100.00
47366;BME280;33105;47.964;7.982;2024-02-23T04:00:27;95009.75;;;3.91;100.00
47366;BME280;33105;47.964;7.982;2024-02-23T04:03:29;95021.31;;;3.82;100.00
47366;BME280;33105;47.964;7.982;2024-02-23T04:06:31;95013.94;;;3.72;100.00
47366;BME280;33105;47.964;7.982;2024-02-23T04:09:33;95004.78;;;3.73;100.00
47366;BME280;33105;47.964;7.982;2024-02-23T04:12:45;95008.16;;;4.00;100.00
47366;BME280;33105;47.964;7.982;2024-02-23T04:16:01;94999.19;;;3.85;100.00
47366;BME280;33105;47.964;7.982;2024-02-23T04:19:12;94988.63;;;3.83;98.39
47366;BME280;33105;47.964;7.982;2024-02-23T04:22:14;95001.56;;;3.76;97.44
47366;BME280;33105;47.964;7.982;2024-02-23T04:25:15;94999.94;;;3.75;96.03
47366;BME280;33105;47.964;7.982;2024-02-23T04:29:12;95008.78;;;3.60;100.00
47366;BME280;33105;47.964;7.982;2024-02-23T04:31:59;94999.34;;;3.63;96.06
47366;BME280;33105;47.964;7.982;2024-02-23T04:35:01;94998.09;;;3.38;100.00
47366;BME280;33105;47.964;7.982;2024-02-23T04:38:08;95010.44;;;3.71;96.24
47366;BME280;33105;47.964;7.982;2024-02-23T04:42:37;95010.59;;;3.50;100.00
47366;BME280;33105;47.964;7.982;2024-02-23T04:46:16;95017.66;;;3.56;100.00
47366;BME280;33105;47.964;7.982;2024-02-23T04:49:26;95023.63;;;3.63;93.68
47366;BME280;33105;47.964;7.982;2024-02-23T04:52:30;95028.75;;;3.59;99.41
47366;BME280;33105;47.964;7.982;2024-02-23T04:55:56;95026.78;;;3.50;99.45
47366;BME280;33105;47.964;7.982;2024-02-23T04:59:00;95023.56;;;3.53;97.99
47366;BME280;33105;47.964;7.982;2024-02-23T05:02:22;95022.06;;;3.72;90.24
47366;BME280;33105;47.964;7.982;2024-02-23T05:05:23;95031.78;;;3.68;91.52
47366;BME280;33105;47.964;7.982;2024-02-23T05:12:51;95033.06;;;3.23;100.00
47366;BME280;33105;47.964;7.982;2024-02-23T05:15:55;95031.63;;;3.48;97.98
47366;BME280;33105;47.964;7.982;2024-02-23T05:19:13;95023.50;;;3.42;100.00
47366;BME280;33105;47.964;7.982;2024-02-23T05:22:36;95014.25;;;3.33;100.00
47366;BME280;33105;47.964;7.982;2024-02-23T05:29:38;95015.44;;;3.48;99.49
47366;BME280;33105;47.964;7.982;2024-02-23T05:32:39;95008.69;;;3.45;97.25
47366;BME280;33105;47.964;7.982;2024-02-23T05:35:41;95025.34;;;3.37;97.73
47366;BME280;33105;47.964;7.982;2024-02-23T05:38:42;95026.63;;;3.71;93.29
47366;BME280;33105;47.964;7.982;2024-02-23T05:46:07;95024.75;;;3.30;100.00
47366;BME280;33105;47.964;7.982;2024-02-23T05:49:24;95018.28;;;3.31;99.85
47366;BME280;33105;47.964;7.982;2024-02-23T05:53:12;95028.16;;;3.15;99.69
47366;BME280;33105;47.964;7.982;2024-02-23T06:18:55;95026.53;;;3.51;100.00
47366;BME280;33105;47.964;7.982;2024-02-23T06:32:03;95013.16;;;3.29;100.00
47366;BME280;33105;47.964;7.982;2024-02-23T06:35:43;95004.09;;;3.46;97.06
47366;BME280;33105;47.964;7.982;2024-02-23T06:38:45;94999.53;;;3.51;93.13
47366;BME280;33105;47.964;7.982;2024-02-23T06:42:09;95012.84;;;3.21;100.00
47366;BME280;33105;47.964;7.982;2024-02-23T06:46:05;95016.34;;;3.21;100.00
47366;BME280;33105;47.964;7.982;2024-02-23T06:54:17;95026.94;;;3.01;100.00
47366;BME280;33105;47.964;7.982;2024-02-23T06:57:43;95035.13;;;2.79;100.00
47366;BME280;33105;47.964;7.982;2024-02-23T07:00:47;95041.84;;;2.77;100.00
47366;BME280;33105;47.964;7.982;2024-02-23T07:03:58;95028.34;;;2.77;100.00
47366;BME280;33105;47.964;7.982;2024-02-23T07:06:59;95040.63;;;2.62;100.00
47366;BME280;33105;47.964;7.982;2024-02-23T07:10:01;95043.75;;;2.54;100.00
47366;BME280;33105;47.964;7.982;2024-02-23T07:13:04;95040.13;;;2.65;100.00
47366;BME280;33105;47.964;7.982;2024-02-23T07:16:14;95040.44;;;2.74;100.00
47366;BME280;33105;47.964;7.982;2024-02-23T07:19:16;95049.28;;;2.64;100.00
47366;BME280;33105;47.964;7.982;2024-02-23T07:22:17;95053.03;;;2.63;100.00
47366;BME280;33105;47.964;7.982;2024-02-23T07:28:58;95046.72;;;2.80;100.00
47366;BME280;33105;47.964;7.982;2024-02-23T07:32:10;95053.34;;;2.94;100.00
47366;BME280;33105;47.964;7.982;2024-02-23T07:35:25;95051.97;;;2.91;100.00
47366;BME280;33105;47.964;7.982;2024-02-23T07:56:44;95058.13;;;3.93;100.00
47366;BME280;33105;47.964;7.982;2024-02-23T08:10:20;95054.69;;;3.60;100.00
47366;BME280;33105;47.964;7.982;2024-02-23T08:19:26;95052.63;;;3.78;99.84
47366;BME280;33105;47.964;7.982;2024-02-23T08:23:19;95036.34;;;4.15;100.00
47366;BME280;33105;47.964;7.982;2024-02-23T08:27:08;95036.22;;;3.89;100.00
47366;BME280;33105;47.964;7.982;2024-02-23T08:35:52;95032.47;;;4.00;100.00
47366;BME280;33105;47.964;7.982;2024-02-23T08:44:01;95020.59;;;4.01;100.00
47366;BME280;33105;47.964;7.982;2024-02-23T08:47:02;94999.44;;;4.56;92.22
47366;BME280;33105;47.964;7.982;2024-02-23T08:50:04;95012.59;;;4.27;94.69
47366;BME280;33105;47.964;7.982;2024-02-23T08:53:05;95012.28;;;4.13;96.37
47366;BME280;33105;47.964;7.982;2024-02-23T08:56:07;95016.38;;;4.26;98.64
47366;BME280;33105;47.964;7.982;2024-02-23T08:59:09;95010.69;;;4.17;98.24
47366;BME280;33105;47.964;7.982;2024-02-23T09:02:11;95010.13;;;4.15;100.00
47366;BME280;33105;47.964;7.982;2024-02-23T09:05:12;95004.81;;;4.45;94.09
47366;BME280;33105;47.964;7.982;2024-02-23T09:08:13;94989.44;;;4.56;95.24
47366;BME280;33105;47.964;7.982;2024-02-23T09:11:15;94982.41;;;4.60;95.08
47366;BME280;33105;47.964;7.982;2024-02-23T09:14:17;94990.25;;;4.72;89.53
47366;BME280;33105;47.964;7.982;2024-02-23T09:17:18;94990.00;;;4.99;85.64
47366;BME280;33105;47.964;7.982;2024-02-23T09:20:21;94980.53;;;4.96;87.05
47366;BME280;33105;47.964;7.982;2024-02-23T09:23:23;94983.53;;;5.10;85.89
47366;BME280;33105;47.964;7.982;2024-02-23T09:26:25;94986.25;;;4.95;86.26
47366;BME280;33105;47.964;7.982;2024-02-23T09:29:27;94985.97;;;5.01;86.13
47366;BME280;33105;47.964;7.982;2024-02-23T09:32:28;94975.66;;;4.83;89.70
47366;BME280;33105;47.964;7.982;2024-02-23T09:35:29;94976.22;;;5.05;83.89
47366;BME280;33105;47.964;7.982;2024-02-23T09:43:28;94980.03;;;5.15;86.75
47366;BME280;33105;47.964;7.982;2024-02-23T09:46:30;94980.28;;;5.28;82.24
47366;BME280;33105;47.964;7.982;2024-02-23T09:49:31;94983.25;;;5.37;84.79
47366;BME280;33105;47.964;7.982;2024-02-23T09:52:33;94982.19;;;5.12;87.10
47366;BME280;33105;47.964;7.982;2024-02-23T09:55:34;94987.31;;;4.89;84.46
47366;BME280;33105;47.964;7.982;2024-02-23T09:58:36;94980.56;;;5.17;82.69
47366;BME280;33105;47.964;7.982;2024-02-23T10:01:38;94969.41;;;5.48;82.46
47366;BME280;33105;47.964;7.982;2024-02-23T10:04:40;94976.75;;;5.33;79.35
47366;BME280;33105;47.964;7.982;2024-02-23T10:07:42;94975.13;;;5.22;80.88
47366;BME280;33105;47.964;7.982;2024-02-23T10:10:46;94976.50;;;5.14;82.33
47366;BME280;33105;47.964;7.982;2024-02-23T10:13:49;94977.28;;;5.30;81.82
47366;BME280;33105;47.964;7.982;2024-02-23T10:16:53;94971.09;;;5.19;80.69
47366;BME280;33105;47.964;7.982;2024-02-23T10:19:56;94964.03;;;5.38;77.38
47366;BME280;33105;47.964;7.982;2024-02-23T10:22:58;94956.19;;;5.27;78.14
47366;BME280;33105;47.964;7.982;2024-02-23T10:26:00;94963.75;;;5.35;80.52
47366;BME280;33105;47.964;7.982;2024-02-23T10:29:01;94954.28;;;5.42;79.21
47366;BME280;33105;47.964;7.982;2024-02-23T10:32:05;94962.59;;;5.71;78.41
47366;BME280;33105;47.964;7.982;2024-02-23T10:35:13;94965.31;;;5.66;78.41
47366;BME280;33105;47.964;7.982;2024-02-23T10:38:17;94959.91;;;5.61;77.11
47366;BME280;33105;47.964;7.982;2024-02-23T10:41:19;94946.63;;;5.65;79.59
47366;BME280;33105;47.964;7.982;2024-02-23T10:44:23;94949.78;;;5.97;78.96
47366;BME280;33105;47.964;7.982;2024-02-23T10:47:25;94944.69;;;5.91;78.18
47366;BME280;33105;47.964;7.982;2024-02-23T10:50:26;94947.47;;;6.35;78.59
47366;BME280;33105;47.964;7.982;2024-02-23T10:53:28;94939.72;;;6.62;71.00
47366;BME280;33105;47.964;7.982;2024-02-23T10:56:29;94944.53;;;6.21;74.54
47366;BME280;33105;47.964;7.982;2024-02-23T10:59:31;94941.81;;;6.70;73.29
47366;BME280;33105;47.964;7.982;2024-02-23T11:02:34;94936.63;;;6.74;74.06
47366;BME280;33105;47.964;7.982;2024-02-23T11:05:37;94923.53;;;6.86;72.73
47366;BME280;33105;47.964;7.982;2024-02-23T11:08:38;94938.97;;;6.91;76.90
47366;BME280;33105;47.964;7.982;2024-02-23T11:11:39;94935.63;;;6.99;73.58
47366;BME280;33105;47.964;7.982;2024-02-23T11:14:44;94927.84;;;7.50;68.61
47366;BME280;33105;47.964;7.982;2024-02-23T11:17:49;94916.59;;;7.85;69.49
47366;BME280;33105;47.964;7.982;2024-02-23T11:20:55;94914.38;;;7.40;71.12
47366;BME280;33105;47.964;7.982;2024-02-23T11:24:02;94919.31;;;7.33;70.93
47366;BME280;33105;47.964;7.982;2024-02-23T11:27:04;94915.09;;;7.45;70.13
47366;BME280;33105;47.964;7.982;2024-02-23T11:30:10;94913.78;;;7.43;73.42
47366;BME280;33105;47.964;7.982;2024-02-23T11:33:13;94920.31;;;7.13;73.13
47366;BME280;33105;47.964;7.982;2024-02-23T11:36:28;94908.53;;;7.51;70.01
47366;BME280;33105;47.964;7.982;2024-02-23T11:39:30;94911.94;;;7.09;69.02
47366;BME280;33105;47.964;7.982;2024-02-23T11:42:33;94908.25;;;7.24;70.25
47366;BME280;33105;47.964;7.982;2024-02-23T11:45:35;94921.25;;;6.98;67.87
47366;BME280;33105;47.964;7.982;2024-02-23T11:48:36;94916.25;;;6.76;70.59
47366;BME280;33105;47.964;7.982;2024-02-23T11:51:38;94912.09;;;7.18;68.53
47366;BME280;33105;47.964;7.982;2024-02-23T11:54:39;94905.28;;;7.49;67.08
47366;BME280;33105;47.964;7.982;2024-02-23T11:57:41;94906.25;;;7.64;68.36
47366;BME280;33105;47.964;7.982;2024-02-23T12:00:42;94891.31;;;7.85;65.85
47366;BME280;33105;47.964;7.982;2024-02-23T12:03:43;94890.91;;;7.73;65.65
47366;BME280;33105;47.964;7.982;2024-02-23T12:06:45;94898.59;;;7.42;68.65
47366;BME280;33105;47.964;7.982;2024-02-23T12:09:47;94889.66;;;7.12;67.53
47366;BME280;33105;47.964;7.982;2024-02-23T12:12:49;94879.69;;;7.03;70.98
47366;BME280;33105;47.964;7.982;2024-02-23T12:15:52;94880.16;;;7.10;72.53
47366;BME280;33105;47.964;7.982;2024-02-23T12:18:55;94877.19;;;7.35;69.98
47366;BME280;33105;47.964;7.982;2024-02-23T12:22:00;94878.44;;;7.19;69.34
47366;BME280;33105;47.964;7.982;2024-02-23T12:25:02;94880.19;;;7.34;69.60
47366;BME280;33105;47.964;7.982;2024-02-23T12:28:04;94874.66;;;7.92;68.21
47366;BME280;33105;47.964;7.982;2024-02-23T12:31:06;94881.91;;;7.96;69.82
47366;BME280;33105;47.964;7.982;2024-02-23T12:34:11;94874.16;;;8.08;65.69
47366;BME280;33105;47.964;7.982;2024-02-23T12:37:16;94876.81;;;8.13;68.13
47366;BME280;33105;47.964;7.982;2024-02-23T12:40:18;94881.34;;;7.75;64.39
47366;BME280;33105;47.964;7.982;2024-02-23T12:43:20;94886.47;;;7.82;65.84
47366;BME280;33105;47.964;7.982;2024-02-23T12:46:27;94876.25;;;7.69;66.08
47366;BME280;33105;47.964;7.982;2024-02-23T12:49:28;94873.16;;;7.57;68.07
47366;BME280;33105;47.964;7.982;2024-02-23T12:52:30;94875.13;;;7.51;67.92
47366;BME280;33105;47.964;7.982;2024-02-23T12:55:32;94882.06;;;7.62;68.60
47366;BME280;33105;47.964;7.982;2024-02-23T12:58:35;94889.13;;;7.87;67.84
47366;BME280;33105;47.964;7.982;2024-02-23T13:01:37;94876.72;;;8.00;66.63
47366;BME280;33105;47.964;7.982;2024-02-23T13:04:40;94880.22;;;7.81;67.21
47366;BME280;33105;47.964;7.982;2024-02-23T13:07:41;94871.41;;;7.90;68.52
47366;BME280;33105;47.964;7.982;2024-02-23T13:10:43;94867.94;;;7.84;67.59
47366;BME280;33105;47.964;7.982;2024-02-23T13:13:44;94865.75;;;7.86;65.12
47366;BME280;33105;47.964;7.982;2024-02-23T13:16:46;94867.66;;;7.62;69.91
47366;BME280;33105;47.964;7.982;2024-02-23T13:19:47;94868.63;;;7.71;66.37
47366;BME280;33105;47.964;7.982;2024-02-23T13:22:49;94860.03;;;7.88;70.14
47366;BME280;33105;47.964;7.982;2024-02-23T13:25:51;94852.63;;;8.12;67.97
47366;BME280;33105;47.964;7.982;2024-02-23T13:28:52;94841.59;;;8.22;67.88
47366;BME280;33105;47.964;7.982;2024-02-23T13:31:53;94837.53;;;8.01;67.12
47366;BME280;33105;47.964;7.982;2024-02-23T13:34:55;94824.97;;;8.05;65.67
47366;BME280;33105;47.964;7.982;2024-02-23T13:37:56;94823.53;;;8.12;62.32
47366;BME280;33105;47.964;7.982;2024-02-23T13:40:58;94823.19;;;8.38;62.63
47366;BME280;33105;47.964;7.982;2024-02-23T13:44:00;94818.81;;;8.56;67.04
47366;BME280;33105;47.964;7.982;2024-02-23T13:47:01;94808.75;;;8.56;62.78
47366;BME280;33105;47.964;7.982;2024-02-23T13:50:02;94811.72;;;8.41;63.57
47366;BME280;33105;47.964;7.982;2024-02-23T13:53:04;94808.91;;;8.46;64.58
47366;BME280;33105;47.964;7.982;2024-02-23T13:56:05;94810.81;;;8.45;65.69
47366;BME280;33105;47.964;7.982;2024-02-23T13:59:07;94805.97;;;8.75;65.26
47366;BME280;33105;47.964;7.982;2024-02-23T14:02:08;94800.38;;;8.99;63.07
47366;BME280;33105;47.964;7.982;2024-02-23T14:05:10;94802.75;;;8.73;62.64
47366;BME280;33105;47.964;7.982;2024-02-23T14:08:11;94795.13;;;8.56;65.00
47366;BME280;33105;47.964;7.982;2024-02-23T14:11:13;94797.78;;;8.61;67.85
47366;BME280;33105;47.964;7.982;2024-02-23T14:14:14;94802.63;;;8.27;63.84
47366;BME280;33105;47.964;7.982;2024-02-23T14:17:16;94804.31;;;8.04;66.22
47366;BME280;33105;47.964;7.982;2024-02-23T14:20:17;94813.13;;;7.96;68.83
47366;BME280;33105;47.964;7.982;2024-02-23T14:23:18;94814.41;;;8.03;68.53
47366;BME280;33105;47.964;7.982;2024-02-23T14:26:20;94808.91;;;8.08;66.50
47366;BME280;33105;47.964;7.982;2024-02-23T14:29:21;94816.03;;;8.42;71.15
47366;BME280;33105;47.964;7.982;2024-02-23T14:32:22;94808.31;;;8.81;66.22
47366;BME280;33105;47.964;7.982;2024-02-23T14:35:23;94803.13;;;8.99;66.49
47366;BME280;33105;47.964;7.982;2024-02-23T14:38:25;94799.25;;;9.32;64.16
47366;BME280;33105;47.964;7.982;2024-02-23T14:41:26;94809.97;;;8.96;64.79
47366;BME280;33105;47.964;7.982;2024-02-23T14:44:27;94799.63;;;8.66;64.71
47366;BME280;33105;47.964;7.982;2024-02-23T14:47:29;94798.81;;;8.46;66.73
47366;BME280;33105;47.964;7.982;2024-02-23T14:50:30;94807.63;;;8.19;64.72
47366;BME280;33105;47.964;7.982;2024-02-23T14:53:31;94795.81;;;8.10;65.85
47366;BME280;33105;47.964;7.982;2024-02-23T14:56:33;94796.09;;;7.90;65.53
47366;BME280;33105;47.964;7.982;2024-02-23T14:59:34;94794.66;;;7.74;66.48
47366;BME280;33105;47.964;7.982;2024-02-23T15:02:37;94794.34;;;7.57;68.26
47366;BME280;33105;47.964;7.982;2024-02-23T15:05:38;94794.66;;;7.55;70.42
47366;BME280;33105;47.964;7.982;2024-02-23T15:08:39;94797.75;;;7.43;70.20
47366;BME280;33105;47.964;7.982;2024-02-23T15:11:40;94792.94;;;7.40;72.42
47366;BME280;33105;47.964;7.982;2024-02-23T15:14:42;94797.06;;;7.57;71.56
47366;BME280;33105;47.964;7.982;2024-02-23T15:17:44;94789.38;;;7.64;73.54
47366;BME280;33105;47.964;7.982;2024-02-23T15:20:47;94795.19;;;7.76;72.95
47366;BME280;33105;47.964;7.982;2024-02-23T15:23:53;94783.00;;;7.92;72.65
47366;BME280;33105;47.964;7.982;2024-02-23T15:26:54;94769.44;;;8.11;69.57
47366;BME280;33105;47.964;7.982;2024-02-23T15:29:55;94767.72;;;7.77;69.73
47366;BME280;33105;47.964;7.982;2024-02-23T15:32:57;94770.47;;;7.54;73.16
47366;BME280;33105;47.964;7.982;2024-02-23T15:35:58;94773.50;;;7.28;71.38
47366;BME280;33105;47.964;7.982;2024-02-23T15:38:59;94770.97;;;7.13;72.92
47366;BME280;33105;47.964;7.982;2024-02-23T15:42:04;94767.50;;;7.31;73.04
47366;BME280;33105;47.964;7.982;2024-02-23T15:45:06;94766.63;;;7.12;76.50
47366;BME280;33105;47.964;7.982;2024-02-23T15:48:07;94769.88;;;7.14;78.03
47366;BME280;33105;47.964;7.982;2024-02-23T15:51:12;94774.78;;;7.12;78.43
47366;BME280;33105;47.964;7.982;2024-02-23T15:54:13;94772.88;;;7.12;79.70
47366;BME280;33105;47.964;7.982;2024-02-23T15:57:14;94771.31;;;7.06;81.16
47366;BME280;33105;47.964;7.982;2024-02-23T16:00:16;94766.00;;;7.20;76.79
47366;BME280;33105;47.964;7.982;2024-02-23T16:03:17;94770.97;;;7.13;79.90
47366;BME280;33105;47.964;7.982;2024-02-23T16:06:20;94766.16;;;7.29;79.93
47366;BME280;33105;47.964;7.982;2024-02-23T16:09:21;94760.56;;;7.20;82.43
47366;BME280;33105;47.964;7.982;2024-02-23T16:12:22;94758.44;;;7.17;82.33
47366;BME280;33105;47.964;7.982;2024-02-23T16:15:23;94753.13;;;7.49;75.32
47366;BME280;33105;47.964;7.982;2024-02-23T16:18:25;94759.72;;;7.43;74.03
47366;BME280;33105;47.964;7.982;2024-02-23T16:21:26;94760.84;;;7.18;79.95
47366;BME280;33105;47.964;7.982;2024-02-23T16:24:27;94756.16;;;7.00;80.28
47366;BME280;33105;47.964;7.982;2024-02-23T16:27:28;94759.88;;;6.86;80.86
47366;BME280;33105;47.964;7.982;2024-02-23T16:30:30;94764.72;;;6.89;81.51
47366;BME280;33105;47.964;7.982;2024-02-23T16:33:33;94773.56;;;6.70;81.95
47366;BME280;33105;47.964;7.982;2024-02-23T16:36:38;94768.81;;;6.57;81.16
47366;BME280;33105;47.964;7.982;2024-02-23T16:39:39;94767.75;;;6.53;81.26
47366;BME280;33105;47.964;7.982;2024-02-23T16:42:40;94766.38;;;6.56;81.27
47366;BME280;33105;47.964;7.982;2024-02-23T16:45:42;94775.34;;;6.56;81.69
47366;BME280;33105;47.964;7.982;2024-02-23T16:48:44;94778.34;;;6.55;79.85
47366;BME280;33105;47.964;7.982;2024-02-23T16:51:45;94782.63;;;6.61;80.17
47366;BME280;33105;47.964;7.982;2024-02-23T16:54:46;94782.53;;;6.42;84.11
47366;BME280;33105;47.964;7.982;2024-02-23T16:57:48;94784.22;;;6.33;86.76
47366;BME280;33105;47.964;7.982;2024-02-23T17:00:50;94791.84;;;6.26;86.93
47366;BME280;33105;47.964;7.982;2024-02-23T17:03:54;94799.69;;;6.32;84.82
47366;BME280;33105;47.964;7.982;2024-02-23T17:06:58;94801.81;;;6.35;85.39
47366;BME280;33105;47.964;7.982;2024-02-23T17:10:02;94800.34;;;6.48;81.75
47366;BME280;33105;47.964;7.982;2024-02-23T17:13:03;94803.25;;;6.23;87.55
47366;BME280;33105;47.964;7.982;2024-02-23T17:16:07;94805.81;;;6.09;86.42
47366;BME280;33105;47.964;7.982;2024-02-23T17:19:09;94808.03;;;5.97;87.83
47366;BME280;33105;47.964;7.982;2024-02-23T17:22:10;94812.72;;;5.81;88.58
47366;BME280;33105;47.964;7.982;2024-02-23T17:25:12;94812.56;;;5.62;88.49
47366;BME280;33105;47.964;7.982;2024-02-23T17:28:13;94821.06;;;5.40;88.80
47366;BME280;33105;47.964;7.982;2024-02-23T17:31:14;94826.19;;;5.42;88.88
47366;BME280;33105;47.964;7.982;2024-02-23T17:34:16;94825.66;;;5.35;90.15
47366;BME280;33105;47.964;7.982;2024-02-23T17:37:17;94823.75;;;5.40;91.07
47366;BME280;33105;47.964;7.982;2024-02-23T17:40:21;94828.31;;;5.45;91.97
47366;BME280;33105;47.964;7.982;2024-02-23T17:43:23;94832.19;;;5.88;88.28
47366;BME280;33105;47.964;7.982;2024-02-23T17:46:24;94831.88;;;6.00;86.97
47366;BME280;33105;47.964;7.982;2024-02-23T17:49:25;94836.13;;;6.16;83.92
47366;BME280;33105;47.964;7.982;2024-02-23T17:52:26;94835.66;;;6.04;84.42
47366;BME280;33105;47.964;7.982;2024-02-23T17:55:27;94828.56;;;6.13;82.84
47366;BME280;33105;47.964;7.982;2024-02-23T17:58:29;94831.56;;;6.11;83.35
47366;BME280;33105;47.964;7.982;2024-02-23T18:01:31;94827.00;;;6.02;83.92
47366;BME280;33105;47.964;7.982;2024-02-23T18:04:33;94832.78;;;5.75;87.01
47366;BME280;33105;47.964;7.982;2024-02-23T18:07:35;94838.22;;;5.75;86.00
47366;BME280;33105;47.964;7.982;2024-02-23T18:10:38;94835.03;;;5.63;88.29